sensor_id;sensor_type;location;lat;lon;timestamp;pressure;altitude;pressure_sealevel;temperature
38249;BMP280;24045;51.138;17.126;2023-08-31T00:01:58;99465.39;;;14.55
38249;BMP280;24045;51.138;17.126;2023-08-31T00:17:02;99465.77;;;14.45
38249;BMP280;24045;51.138;17.126;2023-08-31T00:32:06;99470.59;;;14.41
38249;BMP280;24045;51.138;17.126;2023-08-31T00:47:09;99462.09;;;14.36
38249;BMP280;24045;51.138;17.126;2023-08-31T01:02:19;99447.77;;;14.40
38249;BMP280;24045;51.138;17.126;2023-08-31T01:17:26;99449.38;;;14.37
38249;BMP280;24045;51.138;17.126;2023-08-31T01:32:31;99457.42;;;14.28
38249;BMP280;24045;51.138;17.126;2023-08-31T01:47:34;99451.98;;;14.13
38249;BMP280;24045;51.138;17.126;2023-08-31T02:02:37;99462.75;;;13.89
38249;BMP280;24045;51.138;17.126;2023-08-31T02:17:40;99458.64;;;13.58
38249;BMP280;24045;51.138;17.126;2023-08-31T02:32:43;99460.96;;;13.62
38249;BMP280;24045;51.138;17.126;2023-08-31T02:47:46;99471.06;;;13.64
38249;BMP280;24045;51.138;17.126;2023-08-31T03:02:52;99466.85;;;13.68
38249;BMP280;24045;51.138;17.126;2023-08-31T03:17:55;99467.70;;;13.65
38249;BMP280;24045;51.138;17.126;2023-08-31T03:32:59;99460.54;;;13.55
38249;BMP280;24045;51.138;17.126;2023-08-31T03:48:02;99477.39;;;13.38
38249;BMP280;24045;51.138;17.126;2023-08-31T04:03:05;99475.33;;;13.21
38249;BMP280;24045;51.138;17.126;2023-08-31T04:18:09;99463.24;;;13.10
38249;BMP280;24045;51.138;17.126;2023-08-31T04:33:12;99471.25;;;13.08
38249;BMP280;24045;51.138;17.126;2023-08-31T04:48:16;99476.02;;;13.22
38249;BMP280;24045;51.138;17.126;2023-08-31T05:03:19;99478.41;;;13.63
38249;BMP280;24045;51.138;17.126;2023-08-31T05:18:22;99487.49;;;13.82
38249;BMP280;24045;51.138;17.126;2023-08-31T05:33:24;99507.65;;;14.23
38249;BMP280;24045;51.138;17.126;2023-08-31T05:48:32;99532.44;;;14.93
38249;BMP280;24045;51.138;17.126;2023-08-31T06:03:35;99539.62;;;15.95
38249;BMP280;24045;51.138;17.126;2023-08-31T06:18:39;99549.02;;;16.85
38249;BMP280;24045;51.138;17.126;2023-08-31T06:33:42;99559.23;;;17.63
38249;BMP280;24045;51.138;17.126;2023-08-31T06:48:50;99566.84;;;20.21
38249;BMP280;24045;51.138;17.126;2023-08-31T07:03:55;99577.20;;;24.02
38249;BMP280;24045;51.138;17.126;2023-08-31T07:18:59;99582.92;;;25.49
38249;BMP280;24045;51.138;17.126;2023-08-31T07:34:02;99594.48;;;26.95
38249;BMP280;24045;51.138;17.126;2023-08-31T07:49:06;99605.73;;;26.37
38249;BMP280;24045;51.138;17.126;2023-08-31T08:04:11;99624.04;;;24.96
38249;BMP280;24045;51.138;17.126;2023-08-31T08:19:20;99638.38;;;24.20
38249;BMP280;24045;51.138;17.126;2023-08-31T08:34:25;99650.11;;;24.15
38249;BMP280;24045;51.138;17.126;2023-08-31T08:49:33;99657.94;;;22.21
38249;BMP280;24045;51.138;17.126;2023-08-31T09:04:38;99686.73;;;20.59
38249;BMP280;24045;51.138;17.126;2023-08-31T09:19:41;99696.91;;;19.46
38249;BMP280;24045;51.138;17.126;2023-08-31T09:34:44;99718.28;;;18.42
38249;BMP280;24045;51.138;17.126;2023-08-31T09:49:48;99753.53;;;17.53
38249;BMP280;24045;51.138;17.126;2023-08-31T10:04:52;99772.39;;;17.15
38249;BMP280;24045;51.138;17.126;2023-08-31T10:19:55;99791.02;;;16.24
38249;BMP280;24045;51.138;17.126;2023-08-31T10:35:05;99809.52;;;15.89
38249;BMP280;24045;51.138;17.126;2023-08-31T10:50:21;99811.98;;;16.37
38249;BMP280;24045;51.138;17.126;2023-08-31T11:05:25;99817.73;;;16.66
38249;BMP280;24045;51.138;17.126;2023-08-31T11:20:30;99818.77;;;17.89
38249;BMP280;24045;51.138;17.126;2023-08-31T11:35:39;99798.16;;;19.70
38249;BMP280;24045;51.138;17.126;2023-08-31T11:50:43;99792.68;;;20.32
38249;BMP280;24045;51.138;17.126;2023-08-31T12:05:48;99791.47;;;21.28
38249;BMP280;24045;51.138;17.126;2023-08-31T12:20:52;99788.33;;;21.67
38249;BMP280;24045;51.138;17.126;2023-08-31T12:35:55;99784.27;;;21.87
38249;BMP280;24045;51.138;17.126;2023-08-31T12:50:58;99780.19;;;21.56
38249;BMP280;24045;51.138;17.126;2023-08-31T13:06:01;99770.86;;;22.00
38249;BMP280;24045;51.138;17.126;2023-08-31T13:21:04;99781.91;;;22.20
38249;BMP280;24045;51.138;17.126;2023-08-31T13:36:07;99786.34;;;21.87
38249;BMP280;24045;51.138;17.126;2023-08-31T13:51:11;99779.31;;;21.69
38249;BMP280;24045;51.138;17.126;2023-08-31T14:06:14;99779.30;;;21.63
38249;BMP280;24045;51.138;17.126;2023-08-31T14:21:17;99776.71;;;21.33
38249;BMP280;24045;51.138;17.126;2023-08-31T14:36:20;99793.95;;;21.28
38249;BMP280;24045;51.138;17.126;2023-08-31T14:51:23;99791.35;;;21.23
38249;BMP280;24045;51.138;17.126;2023-08-31T15:06:26;99801.79;;;20.83
38249;BMP280;24045;51.138;17.126;2023-08-31T15:21:29;99803.02;;;20.69
38249;BMP280;24045;51.138;17.126;2023-08-31T15:36:32;99811.41;;;20.63
38249;BMP280;24045;51.138;17.126;2023-08-31T15:51:35;99819.05;;;20.38
38249;BMP280;24045;51.138;17.126;2023-08-31T16:06:38;99832.34;;;20.00
38249;BMP280;24045;51.138;17.126;2023-08-31T16:21:41;99832.21;;;19.56
38249;BMP280;24045;51.138;17.126;2023-08-31T16:36:44;99897.22;;;19.03
38249;BMP280;24045;51.138;17.126;2023-08-31T16:51:49;99898.50;;;17.07
38249;BMP280;24045;51.138;17.126;2023-08-31T17:06:52;99904.73;;;16.55
38249;BMP280;24045;51.138;17.126;2023-08-31T17:21:55;99916.01;;;16.43
38249;BMP280;24045;51.138;17.126;2023-08-31T17:36:58;99912.79;;;16.19
38249;BMP280;24045;51.138;17.126;2023-08-31T17:52:02;99923.36;;;15.43
38249;BMP280;24045;51.138;17.126;2023-08-31T18:07:06;99941.28;;;14.77
38249;BMP280;24045;51.138;17.126;2023-08-31T18:22:09;99959.83;;;14.26
38249;BMP280;24045;51.138;17.126;2023-08-31T18:37:12;99969.59;;;13.96
38249;BMP280;24045;51.138;17.126;2023-08-31T18:52:15;99958.05;;;13.90
38249;BMP280;24045;51.138;17.126;2023-08-31T19:07:18;99976.53;;;13.67
38249;BMP280;24045;51.138;17.126;2023-08-31T19:22:21;99966.73;;;13.56
38249;BMP280;24045;51.138;17.126;2023-08-31T19:37:32;99974.06;;;13.70
38249;BMP280;24045;51.138;17.126;2023-08-31T19:52:36;99980.63;;;13.79
38249;BMP280;24045;51.138;17.126;2023-08-31T20:07:39;99982.27;;;13.81
38249;BMP280;24045;51.138;17.126;2023-08-31T20:22:43;99980.19;;;13.65
38249;BMP280;24045;51.138;17.126;2023-08-31T20:37:46;99984.02;;;13.34
38249;BMP280;24045;51.138;17.126;2023-08-31T20:52:48;99984.86;;;13.05
38249;BMP280;24045;51.138;17.126;2023-08-31T21:07:54;100010.59;;;12.97
38249;BMP280;24045;51.138;17.126;2023-08-31T21:22:57;100069.53;;;13.55
38249;BMP280;24045;51.138;17.126;2023-08-31T21:38:03;100046.73;;;13.85
38249;BMP280;24045;51.138;17.126;2023-08-31T21:53:07;100051.39;;;13.75
38249;BMP280;24045;51.138;17.126;2023-08-31T22:08:11;100064.95;;;13.67
38249;BMP280;24045;51.138;17.126;2023-08-31T22:23:14;100071.00;;;13.55
38249;BMP280;24045;51.138;17.126;2023-08-31T22:38:19;100074.61;;;13.32
38249;BMP280;24045;51.138;17.126;2023-08-31T22:53:21;100094.13;;;12.86
38249;BMP280;24045;51.138;17.126;2023-08-31T23:08:24;100097.80;;;12.43
38249;BMP280;24045;51.138;17.126;2023-08-31T23:23:28;100093.48;;;12.01
38249;BMP280;24045;51.138;17.126;2023-08-31T23:38:31;100102.59;;;11.71
38249;BMP280;24045;51.138;17.126;2023-08-31T23:53:33;100108.03;;;11.37
